首页
METAR-TAF:

METAR-TAF

机场 :

雅典, 喬治亞, 美国

纬度: 33-57-03N, 经度: 083-19-41W, 海拔: 246米

当前天气观测

该预报发布于26分钟前的03:51 UTC
风速3节,风向多变
温度 17°C
湿度 94%
气压 1018 hPa
能見度: 16.1公里
少量云层高于7000英尺
少量云层高于9000英尺
多云层高于11000英尺

METAR: KAHN 140351Z AUTO VRB03KT 10SM FEW070 FEW090 BKN110 17/16 A3005 RMK AO2 RAB32E48 SLP173 P0001 T01670156

时间: 00:17 (04:17 UTC)

预报

该预报发布于4小时和32分钟前的23:45 UTC
预报有效从14日的 00点(UTC)到 14日的 24点(UTC)
风速5节,风向西
能見度: 10公里
少量云层高于1000英尺
阴天层高于6000英尺
附近有阵雨
短暂存在
从 14日的 00点(UTC)到 14日的 03点(UTC)
能見度: 6.4公里
散云层高于1000英尺
多云层高于2000英尺
小阵雨, 轻雾
从 14日的 0400点(UTC)
风速4节,风向西
能見度: 10公里
多云层高于3000英尺
从 14日的 1000点(UTC)
风速5节,风向西转西北
能見度: 10公里
多云层高于3500英尺
从 14日的 1200点(UTC)
风速5节,风向西北
能見度: 10公里
多云层高于10000英尺

TAF: KAHN 132345Z 1400/1424 26005KT P6SM VCSH FEW010 OVC060 TEMPO 1400/1403 4SM -SHRA BR SCT010 BKN020 FM140400 28004KT P6SM BKN030 FM141000 30005KT P6SM BKN035 FM141200 31005KT P6SM BKN100

超过4000个机场的气象观测和天气预报(METAR&TAF报告)。

可查询的气象台以黄色和红色小点在地图上表示。

将鼠标移到小点上方,可查看气象台名称。

然后点击查看天气观测和预报。

如需切换地图:点击带黑十字的绿色按钮放大地图;点击带横线的绿色按钮缩小地图;或者点击绿色箭头查看邻近地区的地图。


METAR-TAF: